sensor_id;sensor_type;location;lat;lon;timestamp;temperature;humidity
74420;DHT22;62855;50.718;-2.460;2023-04-03T00:01:06;40.46;71.00
74420;DHT22;62855;50.718;-2.460;2023-04-03T00:04:06;40.46;71.00
74420;DHT22;62855;50.718;-2.460;2023-04-03T00:07:06;40.28;71.00
74420;DHT22;62855;50.718;-2.460;2023-04-03T00:10:07;40.28;71.00
74420;DHT22;62855;50.718;-2.460;2023-04-03T00:13:06;40.10;71.00
74420;DHT22;62855;50.718;-2.460;2023-04-03T00:16:07;40.10;71.00
74420;DHT22;62855;50.718;-2.460;2023-04-03T00:19:06;40.10;71.00
74420;DHT22;62855;50.718;-2.460;2023-04-03T00:22:06;40.10;71.00
74420;DHT22;62855;50.718;-2.460;2023-04-03T00:25:08;39.92;71.00
74420;DHT22;62855;50.718;-2.460;2023-04-03T00:28:06;39.92;71.00
74420;DHT22;62855;50.718;-2.460;2023-04-03T00:31:06;39.74;71.00
74420;DHT22;62855;50.718;-2.460;2023-04-03T00:34:06;39.74;71.00
74420;DHT22;62855;50.718;-2.460;2023-04-03T00:37:06;39.56;71.00
74420;DHT22;62855;50.718;-2.460;2023-04-03T00:40:08;39.56;71.00
74420;DHT22;62855;50.718;-2.460;2023-04-03T00:43:12;39.56;71.00
74420;DHT22;62855;50.718;-2.460;2023-04-03T00:46:05;39.38;72.00
74420;DHT22;62855;50.718;-2.460;2023-04-03T00:49:05;39.38;72.00
74420;DHT22;62855;50.718;-2.460;2023-04-03T00:52:09;39.20;72.00
74420;DHT22;62855;50.718;-2.460;2023-04-03T00:55:08;39.20;72.00
74420;DHT22;62855;50.718;-2.460;2023-04-03T00:58:07;39.02;72.00
74420;DHT22;62855;50.718;-2.460;2023-04-03T01:01:08;39.02;72.00
74420;DHT22;62855;50.718;-2.460;2023-04-03T01:04:26;39.02;72.00
74420;DHT22;62855;50.718;-2.460;2023-04-03T01:07:08;39.02;73.00
74420;DHT22;62855;50.718;-2.460;2023-04-03T01:10:09;38.84;73.00
74420;DHT22;62855;50.718;-2.460;2023-04-03T01:13:19;38.84;73.00
74420;DHT22;62855;50.718;-2.460;2023-04-03T01:16:07;38.84;73.00
74420;DHT22;62855;50.718;-2.460;2023-04-03T01:19:08;38.84;74.00
74420;DHT22;62855;50.718;-2.460;2023-04-03T01:22:15;38.84;74.00
74420;DHT22;62855;50.718;-2.460;2023-04-03T01:25:06;38.84;74.00
74420;DHT22;62855;50.718;-2.460;2023-04-03T01:28:08;38.66;74.00
74420;DHT22;62855;50.718;-2.460;2023-04-03T01:31:12;38.66;74.00
74420;DHT22;62855;50.718;-2.460;2023-04-03T01:34:06;38.48;74.00
74420;DHT22;62855;50.718;-2.460;2023-04-03T01:37:06;38.48;74.00
74420;DHT22;62855;50.718;-2.460;2023-04-03T01:40:07;38.30;74.00
74420;DHT22;62855;50.718;-2.460;2023-04-03T01:43:06;38.30;74.00
74420;DHT22;62855;50.718;-2.460;2023-04-03T01:46:06;38.30;74.00
74420;DHT22;62855;50.718;-2.460;2023-04-03T01:49:06;38.30;74.00
74420;DHT22;62855;50.718;-2.460;2023-04-03T01:52:06;38.48;75.00
74420;DHT22;62855;50.718;-2.460;2023-04-03T01:55:06;38.48;75.00
74420;DHT22;62855;50.718;-2.460;2023-04-03T01:58:05;38.48;75.00
74420;DHT22;62855;50.718;-2.460;2023-04-03T02:01:06;38.48;75.00
74420;DHT22;62855;50.718;-2.460;2023-04-03T02:04:06;38.48;76.00
74420;DHT22;62855;50.718;-2.460;2023-04-03T02:07:06;38.48;76.00
74420;DHT22;62855;50.718;-2.460;2023-04-03T02:10:07;38.30;76.00
74420;DHT22;62855;50.718;-2.460;2023-04-03T02:13:06;38.30;76.00
74420;DHT22;62855;50.718;-2.460;2023-04-03T02:16:07;38.12;76.00
74420;DHT22;62855;50.718;-2.460;2023-04-03T02:19:05;38.12;76.00
74420;DHT22;62855;50.718;-2.460;2023-04-03T02:22:06;38.12;76.00
74420;DHT22;62855;50.718;-2.460;2023-04-03T02:25:06;37.94;76.00
74420;DHT22;62855;50.718;-2.460;2023-04-03T02:28:06;37.94;76.00
74420;DHT22;62855;50.718;-2.460;2023-04-03T02:31:06;37.76;76.00
74420;DHT22;62855;50.718;-2.460;2023-04-03T02:34:06;37.76;76.00
74420;DHT22;62855;50.718;-2.460;2023-04-03T02:37:06;37.76;76.00
74420;DHT22;62855;50.718;-2.460;2023-04-03T02:40:07;37.76;77.00
74420;DHT22;62855;50.718;-2.460;2023-04-03T02:43:06;37.58;77.00
74420;DHT22;62855;50.718;-2.460;2023-04-03T02:46:06;37.58;77.00
74420;DHT22;62855;50.718;-2.460;2023-04-03T02:49:06;37.58;77.00
74420;DHT22;62855;50.718;-2.460;2023-04-03T02:52:05;37.40;77.00
74420;DHT22;62855;50.718;-2.460;2023-04-03T02:55:07;37.40;77.00
74420;DHT22;62855;50.718;-2.460;2023-04-03T02:58:06;37.22;77.00
74420;DHT22;62855;50.718;-2.460;2023-04-03T03:01:06;37.22;78.00
74420;DHT22;62855;50.718;-2.460;2023-04-03T03:04:06;37.22;78.00
74420;DHT22;62855;50.718;-2.460;2023-04-03T03:07:06;37.22;78.00
74420;DHT22;62855;50.718;-2.460;2023-04-03T03:10:07;37.22;78.00
74420;DHT22;62855;50.718;-2.460;2023-04-03T03:13:06;37.04;78.00
74420;DHT22;62855;50.718;-2.460;2023-04-03T03:16:06;37.04;78.00
74420;DHT22;62855;50.718;-2.460;2023-04-03T03:19:06;37.04;78.00
74420;DHT22;62855;50.718;-2.460;2023-04-03T03:22:06;36.86;78.00
74420;DHT22;62855;50.718;-2.460;2023-04-03T03:25:07;36.86;78.00
74420;DHT22;62855;50.718;-2.460;2023-04-03T03:28:06;36.86;78.00
74420;DHT22;62855;50.718;-2.460;2023-04-03T03:31:07;36.86;78.00
74420;DHT22;62855;50.718;-2.460;2023-04-03T03:34:06;36.86;78.00
74420;DHT22;62855;50.718;-2.460;2023-04-03T03:37:06;36.86;78.00
74420;DHT22;62855;50.718;-2.460;2023-04-03T03:40:07;36.86;78.00
74420;DHT22;62855;50.718;-2.460;2023-04-03T03:43:06;36.86;78.00
74420;DHT22;62855;50.718;-2.460;2023-04-03T03:46:06;36.86;78.00
74420;DHT22;62855;50.718;-2.460;2023-04-03T03:49:06;36.86;78.00
74420;DHT22;62855;50.718;-2.460;2023-04-03T03:52:05;36.86;77.00
74420;DHT22;62855;50.718;-2.460;2023-04-03T03:55:07;36.86;77.00
74420;DHT22;62855;50.718;-2.460;2023-04-03T03:58:06;36.86;77.00
74420;DHT22;62855;50.718;-2.460;2023-04-03T04:01:06;36.86;77.00
74420;DHT22;62855;50.718;-2.460;2023-04-03T04:04:05;36.68;77.00
74420;DHT22;62855;50.718;-2.460;2023-04-03T04:07:06;36.68;77.00
74420;DHT22;62855;50.718;-2.460;2023-04-03T04:10:07;36.68;77.00
74420;DHT22;62855;50.718;-2.460;2023-04-03T04:13:06;36.50;77.00
74420;DHT22;62855;50.718;-2.460;2023-04-03T04:16:06;36.50;77.00
74420;DHT22;62855;50.718;-2.460;2023-04-03T04:19:06;36.32;77.00
74420;DHT22;62855;50.718;-2.460;2023-04-03T04:22:06;36.32;77.00
74420;DHT22;62855;50.718;-2.460;2023-04-03T04:25:07;36.32;77.00
74420;DHT22;62855;50.718;-2.460;2023-04-03T04:28:06;36.14;77.00
74420;DHT22;62855;50.718;-2.460;2023-04-03T04:31:06;36.14;77.00
74420;DHT22;62855;50.718;-2.460;2023-04-03T04:34:06;35.96;77.00
74420;DHT22;62855;50.718;-2.460;2023-04-03T04:37:06;35.96;77.00
74420;DHT22;62855;50.718;-2.460;2023-04-03T04:40:07;35.78;77.00
74420;DHT22;62855;50.718;-2.460;2023-04-03T04:43:06;35.78;77.00
74420;DHT22;62855;50.718;-2.460;2023-04-03T04:46:08;35.60;77.00
74420;DHT22;62855;50.718;-2.460;2023-04-03T04:49:06;35.60;77.00
74420;DHT22;62855;50.718;-2.460;2023-04-03T04:52:05;35.42;77.00
74420;DHT22;62855;50.718;-2.460;2023-04-03T04:55:06;35.42;77.00
74420;DHT22;62855;50.718;-2.460;2023-04-03T04:58:06;35.24;77.00
74420;DHT22;62855;50.718;-2.460;2023-04-03T05:01:08;35.06;77.00
74420;DHT22;62855;50.718;-2.460;2023-04-03T05:04:05;34.88;78.00
74420;DHT22;62855;50.718;-2.460;2023-04-03T05:07:06;34.88;78.00
74420;DHT22;62855;50.718;-2.460;2023-04-03T05:10:08;34.88;78.00
74420;DHT22;62855;50.718;-2.460;2023-04-03T05:13:06;34.88;78.00
74420;DHT22;62855;50.718;-2.460;2023-04-03T05:16:06;34.88;78.00
74420;DHT22;62855;50.718;-2.460;2023-04-03T05:19:06;34.88;79.00
74420;DHT22;62855;50.718;-2.460;2023-04-03T05:22:06;34.88;79.00
74420;DHT22;62855;50.718;-2.460;2023-04-03T05:25:06;34.88;79.00
74420;DHT22;62855;50.718;-2.460;2023-04-03T05:28:06;34.70;79.00
74420;DHT22;62855;50.718;-2.460;2023-04-03T05:31:06;34.70;79.00
74420;DHT22;62855;50.718;-2.460;2023-04-03T05:34:06;34.70;79.00
74420;DHT22;62855;50.718;-2.460;2023-04-03T05:37:06;34.52;79.00
74420;DHT22;62855;50.718;-2.460;2023-04-03T05:40:06;34.52;79.00
74420;DHT22;62855;50.718;-2.460;2023-04-03T05:43:06;34.52;79.00
74420;DHT22;62855;50.718;-2.460;2023-04-03T05:46:10;34.52;80.00
74420;DHT22;62855;50.718;-2.460;2023-04-03T05:49:06;34.52;80.00
74420;DHT22;62855;50.718;-2.460;2023-04-03T05:52:06;34.52;80.00
74420;DHT22;62855;50.718;-2.460;2023-04-03T05:55:07;34.52;80.00
74420;DHT22;62855;50.718;-2.460;2023-04-03T05:58:06;34.34;80.00
74420;DHT22;62855;50.718;-2.460;2023-04-03T06:01:06;34.34;80.00
74420;DHT22;62855;50.718;-2.460;2023-04-03T06:04:06;33.80;77.00
74420;DHT22;62855;50.718;-2.460;2023-04-03T06:07:09;33.80;77.00
74420;DHT22;62855;50.718;-2.460;2023-04-03T06:10:08;33.80;77.00
74420;DHT22;62855;50.718;-2.460;2023-04-03T06:13:06;33.80;77.00
74420;DHT22;62855;50.718;-2.460;2023-04-03T06:16:07;33.98;77.00
74420;DHT22;62855;50.718;-2.460;2023-04-03T06:19:06;33.98;77.00
74420;DHT22;62855;50.718;-2.460;2023-04-03T06:22:06;33.98;78.00
74420;DHT22;62855;50.718;-2.460;2023-04-03T06:25:06;33.98;78.00
74420;DHT22;62855;50.718;-2.460;2023-04-03T06:28:06;33.98;78.00
74420;DHT22;62855;50.718;-2.460;2023-04-03T06:31:06;34.16;78.00
74420;DHT22;62855;50.718;-2.460;2023-04-03T06:34:05;34.34;78.00
74420;DHT22;62855;50.718;-2.460;2023-04-03T06:37:06;34.34;78.00
74420;DHT22;62855;50.718;-2.460;2023-04-03T06:40:09;34.70;78.00
74420;DHT22;62855;50.718;-2.460;2023-04-03T06:43:06;34.70;78.00
74420;DHT22;62855;50.718;-2.460;2023-04-03T06:46:06;35.06;79.00
74420;DHT22;62855;50.718;-2.460;2023-04-03T06:49:06;35.24;79.00
74420;DHT22;62855;50.718;-2.460;2023-04-03T06:52:06;35.42;79.00
74420;DHT22;62855;50.718;-2.460;2023-04-03T06:55:06;35.78;79.00
74420;DHT22;62855;50.718;-2.460;2023-04-03T06:58:05;35.96;79.00
74420;DHT22;62855;50.718;-2.460;2023-04-03T07:01:06;36.32;79.00
74420;DHT22;62855;50.718;-2.460;2023-04-03T07:04:06;36.50;79.00
74420;DHT22;62855;50.718;-2.460;2023-04-03T07:07:06;36.68;79.00
74420;DHT22;62855;50.718;-2.460;2023-04-03T07:10:07;37.04;79.00
74420;DHT22;62855;50.718;-2.460;2023-04-03T07:13:11;37.40;79.00
74420;DHT22;62855;50.718;-2.460;2023-04-03T07:16:08;37.76;79.00
74420;DHT22;62855;50.718;-2.460;2023-04-03T07:19:06;38.12;79.00
74420;DHT22;62855;50.718;-2.460;2023-04-03T07:22:06;38.30;78.00
74420;DHT22;62855;50.718;-2.460;2023-04-03T07:25:07;38.48;78.00
74420;DHT22;62855;50.718;-2.460;2023-04-03T07:28:06;38.84;77.00
74420;DHT22;62855;50.718;-2.460;2023-04-03T07:31:07;39.20;77.00
74420;DHT22;62855;50.718;-2.460;2023-04-03T07:34:05;39.38;76.00
74420;DHT22;62855;50.718;-2.460;2023-04-03T07:37:06;39.74;75.00
74420;DHT22;62855;50.718;-2.460;2023-04-03T07:40:07;39.92;75.00
74420;DHT22;62855;50.718;-2.460;2023-04-03T07:43:06;40.28;74.00
74420;DHT22;62855;50.718;-2.460;2023-04-03T07:46:06;40.46;73.00
74420;DHT22;62855;50.718;-2.460;2023-04-03T07:49:06;40.64;73.00
74420;DHT22;62855;50.718;-2.460;2023-04-03T07:52:06;40.82;73.00
74420;DHT22;62855;50.718;-2.460;2023-04-03T07:55:06;41.18;72.00
74420;DHT22;62855;50.718;-2.460;2023-04-03T07:58:05;41.72;72.00
74420;DHT22;62855;50.718;-2.460;2023-04-03T08:01:06;41.90;72.00
74420;DHT22;62855;50.718;-2.460;2023-04-03T08:04:06;42.26;71.00
74420;DHT22;62855;50.718;-2.460;2023-04-03T08:07:06;42.62;71.00
74420;DHT22;62855;50.718;-2.460;2023-04-03T08:10:07;42.98;70.00
74420;DHT22;62855;50.718;-2.460;2023-04-03T08:13:07;43.34;70.00
74420;DHT22;62855;50.718;-2.460;2023-04-03T08:16:09;43.34;69.00
74420;DHT22;62855;50.718;-2.460;2023-04-03T08:19:06;43.70;68.00
74420;DHT22;62855;50.718;-2.460;2023-04-03T08:22:06;43.88;67.00
74420;DHT22;62855;50.718;-2.460;2023-04-03T08:25:07;43.88;67.00
74420;DHT22;62855;50.718;-2.460;2023-04-03T08:28:07;44.42;67.00
74420;DHT22;62855;50.718;-2.460;2023-04-03T08:31:07;44.78;63.00
74420;DHT22;62855;50.718;-2.460;2023-04-03T08:34:05;45.14;63.00
74420;DHT22;62855;50.718;-2.460;2023-04-03T08:37:06;45.32;62.00
74420;DHT22;62855;50.718;-2.460;2023-04-03T08:40:12;45.32;61.00
74420;DHT22;62855;50.718;-2.460;2023-04-03T08:43:22;45.50;61.00
74420;DHT22;62855;50.718;-2.460;2023-04-03T08:46:11;45.86;61.00
74420;DHT22;62855;50.718;-2.460;2023-04-03T08:49:10;46.22;61.00
74420;DHT22;62855;50.718;-2.460;2023-04-03T08:52:11;46.40;61.00
74420;DHT22;62855;50.718;-2.460;2023-04-03T08:55:14;46.76;60.00
74420;DHT22;62855;50.718;-2.460;2023-04-03T08:58:12;47.12;60.00
74420;DHT22;62855;50.718;-2.460;2023-04-03T09:01:16;47.30;60.00
74420;DHT22;62855;50.718;-2.460;2023-04-03T09:04:11;47.66;60.00
74420;DHT22;62855;50.718;-2.460;2023-04-03T09:07:10;48.02;59.00
74420;DHT22;62855;50.718;-2.460;2023-04-03T09:10:08;47.84;58.00
74420;DHT22;62855;50.718;-2.460;2023-04-03T09:13:10;48.20;58.00
74420;DHT22;62855;50.718;-2.460;2023-04-03T09:16:16;48.38;57.00
74420;DHT22;62855;50.718;-2.460;2023-04-03T09:19:12;48.74;56.00
74420;DHT22;62855;50.718;-2.460;2023-04-03T09:22:14;48.74;54.00
74420;DHT22;62855;50.718;-2.460;2023-04-03T09:25:12;48.92;55.00
74420;DHT22;62855;50.718;-2.460;2023-04-03T09:28:05;49.28;55.00
74420;DHT22;62855;50.718;-2.460;2023-04-03T09:31:16;49.64;56.00
74420;DHT22;62855;50.718;-2.460;2023-04-03T09:34:12;49.64;54.00
74420;DHT22;62855;50.718;-2.460;2023-04-03T09:37:06;49.64;54.00
74420;DHT22;62855;50.718;-2.460;2023-04-03T09:40:29;49.82;54.00
74420;DHT22;62855;50.718;-2.460;2023-04-03T09:43:21;50.36;55.00
74420;DHT22;62855;50.718;-2.460;2023-04-03T09:46:24;50.36;53.00
74420;DHT22;62855;50.718;-2.460;2023-04-03T09:49:10;50.72;53.00
74420;DHT22;62855;50.718;-2.460;2023-04-03T09:52:20;50.00;60.00
74420;DHT22;62855;50.718;-2.460;2023-04-03T09:55:07;49.28;58.00
74420;DHT22;62855;50.718;-2.460;2023-04-03T09:58:24;48.74;57.00
74420;DHT22;62855;50.718;-2.460;2023-04-03T10:01:23;48.02;55.00
74420;DHT22;62855;50.718;-2.460;2023-04-03T10:04:11;47.66;55.00
74420;DHT22;62855;50.718;-2.460;2023-04-03T10:07:26;47.48;55.00
74420;DHT22;62855;50.718;-2.460;2023-04-03T10:10:18;47.30;55.00
74420;DHT22;62855;50.718;-2.460;2023-04-03T10:13:10;47.30;56.00
74420;DHT22;62855;50.718;-2.460;2023-04-03T10:16:08;47.30;55.00
74420;DHT22;62855;50.718;-2.460;2023-04-03T10:19:19;47.12;55.00
74420;DHT22;62855;50.718;-2.460;2023-04-03T10:22:15;47.12;56.00
74420;DHT22;62855;50.718;-2.460;2023-04-03T10:25:12;47.48;57.00
74420;DHT22;62855;50.718;-2.460;2023-04-03T10:28:10;48.20;57.00
74420;DHT22;62855;50.718;-2.460;2023-04-03T10:31:12;48.74;56.00
74420;DHT22;62855;50.718;-2.460;2023-04-03T10:34:09;48.92;54.00
74420;DHT22;62855;50.718;-2.460;2023-04-03T10:37:13;49.10;54.00
74420;DHT22;62855;50.718;-2.460;2023-04-03T10:40:17;49.46;54.00
74420;DHT22;62855;50.718;-2.460;2023-04-03T10:43:09;49.64;54.00
74420;DHT22;62855;50.718;-2.460;2023-04-03T10:46:15;49.82;53.00
74420;DHT22;62855;50.718;-2.460;2023-04-03T10:49:19;49.64;53.00
74420;DHT22;62855;50.718;-2.460;2023-04-03T10:52:12;50.00;53.00
74420;DHT22;62855;50.718;-2.460;2023-04-03T10:55:18;49.82;52.00
74420;DHT22;62855;50.718;-2.460;2023-04-03T10:58:06;49.64;52.00
74420;DHT22;62855;50.718;-2.460;2023-04-03T11:01:08;49.10;52.00
74420;DHT22;62855;50.718;-2.460;2023-04-03T11:04:06;48.74;52.00
74420;DHT22;62855;50.718;-2.460;2023-04-03T11:07:10;48.56;52.00
74420;DHT22;62855;50.718;-2.460;2023-04-03T11:10:12;48.38;52.00
74420;DHT22;62855;50.718;-2.460;2023-04-03T11:13:11;48.74;54.00
74420;DHT22;62855;50.718;-2.460;2023-04-03T11:16:07;49.28;53.00
74420;DHT22;62855;50.718;-2.460;2023-04-03T11:19:12;49.64;54.00
74420;DHT22;62855;50.718;-2.460;2023-04-03T11:22:10;49.82;52.00
74420;DHT22;62855;50.718;-2.460;2023-04-03T11:25:15;50.00;52.00
74420;DHT22;62855;50.718;-2.460;2023-04-03T11:28:12;50.36;52.00
74420;DHT22;62855;50.718;-2.460;2023-04-03T11:31:15;50.72;52.00
74420;DHT22;62855;50.718;-2.460;2023-04-03T11:34:16;50.90;52.00
74420;DHT22;62855;50.718;-2.460;2023-04-03T11:37:13;50.90;51.00
74420;DHT22;62855;50.718;-2.460;2023-04-03T11:40:13;51.08;51.00
74420;DHT22;62855;50.718;-2.460;2023-04-03T11:43:07;51.08;51.00
74420;DHT22;62855;50.718;-2.460;2023-04-03T11:46:07;51.08;50.00
74420;DHT22;62855;50.718;-2.460;2023-04-03T11:52:09;51.26;50.00
74420;DHT22;62855;50.718;-2.460;2023-04-03T11:58:13;51.08;50.00
74420;DHT22;62855;50.718;-2.460;2023-04-03T12:01:08;51.08;50.00
74420;DHT22;62855;50.718;-2.460;2023-04-03T12:04:09;51.08;50.00
74420;DHT22;62855;50.718;-2.460;2023-04-03T12:07:15;51.26;50.00
74420;DHT22;62855;50.718;-2.460;2023-04-03T12:10:16;51.26;51.00
74420;DHT22;62855;50.718;-2.460;2023-04-03T12:13:15;51.62;51.00
74420;DHT22;62855;50.718;-2.460;2023-04-03T12:16:06;51.98;50.00
74420;DHT22;62855;50.718;-2.460;2023-04-03T12:19:30;51.98;50.00
74420;DHT22;62855;50.718;-2.460;2023-04-03T12:22:12;52.16;50.00
74420;DHT22;62855;50.718;-2.460;2023-04-03T12:28:10;51.62;49.00
74420;DHT22;62855;50.718;-2.460;2023-04-03T12:31:08;51.44;50.00
74420;DHT22;62855;50.718;-2.460;2023-04-03T12:34:16;51.44;49.00
74420;DHT22;62855;50.718;-2.460;2023-04-03T12:37:14;51.44;50.00
74420;DHT22;62855;50.718;-2.460;2023-04-03T12:40:10;51.44;50.00
74420;DHT22;62855;50.718;-2.460;2023-04-03T12:43:17;51.62;50.00
74420;DHT22;62855;50.718;-2.460;2023-04-03T12:46:12;51.44;50.00
74420;DHT22;62855;50.718;-2.460;2023-04-03T12:49:20;51.26;50.00
74420;DHT22;62855;50.718;-2.460;2023-04-03T12:52:18;51.08;49.00
74420;DHT22;62855;50.718;-2.460;2023-04-03T12:55:14;51.26;50.00
74420;DHT22;62855;50.718;-2.460;2023-04-03T12:58:15;51.62;50.00
74420;DHT22;62855;50.718;-2.460;2023-04-03T13:01:11;51.80;50.00
74420;DHT22;62855;50.718;-2.460;2023-04-03T13:04:06;51.98;50.00
74420;DHT22;62855;50.718;-2.460;2023-04-03T13:07:24;51.98;50.00
74420;DHT22;62855;50.718;-2.460;2023-04-03T13:10:14;51.80;49.00
74420;DHT22;62855;50.718;-2.460;2023-04-03T13:13:09;51.80;49.00
74420;DHT22;62855;50.718;-2.460;2023-04-03T13:16:08;51.26;48.00
74420;DHT22;62855;50.718;-2.460;2023-04-03T13:19:16;51.08;50.00
74420;DHT22;62855;50.718;-2.460;2023-04-03T13:22:11;51.26;50.00
74420;DHT22;62855;50.718;-2.460;2023-04-03T13:25:09;51.44;50.00
74420;DHT22;62855;50.718;-2.460;2023-04-03T13:28:07;51.62;50.00
74420;DHT22;62855;50.718;-2.460;2023-04-03T13:31:13;51.44;50.00
74420;DHT22;62855;50.718;-2.460;2023-04-03T13:34:10;51.62;50.00
74420;DHT22;62855;50.718;-2.460;2023-04-03T13:37:06;51.44;50.00
74420;DHT22;62855;50.718;-2.460;2023-04-03T13:40:12;51.62;50.00
74420;DHT22;62855;50.718;-2.460;2023-04-03T13:43:17;51.62;50.00
74420;DHT22;62855;50.718;-2.460;2023-04-03T13:46:24;51.98;50.00
74420;DHT22;62855;50.718;-2.460;2023-04-03T13:49:17;52.34;51.00
74420;DHT22;62855;50.718;-2.460;2023-04-03T13:52:24;52.52;50.00
74420;DHT22;62855;50.718;-2.460;2023-04-03T13:55:17;52.34;50.00
74420;DHT22;62855;50.718;-2.460;2023-04-03T13:58:21;52.16;49.00
74420;DHT22;62855;50.718;-2.460;2023-04-03T14:01:10;52.16;50.00
74420;DHT22;62855;50.718;-2.460;2023-04-03T14:04:14;51.98;49.00
74420;DHT22;62855;50.718;-2.460;2023-04-03T14:07:06;51.62;49.00
74420;DHT22;62855;50.718;-2.460;2023-04-03T14:10:07;51.80;50.00
74420;DHT22;62855;50.718;-2.460;2023-04-03T14:13:06;51.80;50.00
74420;DHT22;62855;50.718;-2.460;2023-04-03T14:16:06;51.80;49.00
74420;DHT22;62855;50.718;-2.460;2023-04-03T14:19:06;51.98;49.00
74420;DHT22;62855;50.718;-2.460;2023-04-03T14:22:14;51.98;48.00
74420;DHT22;62855;50.718;-2.460;2023-04-03T14:25:07;51.98;47.00
74420;DHT22;62855;50.718;-2.460;2023-04-03T14:28:15;52.16;47.00
74420;DHT22;62855;50.718;-2.460;2023-04-03T14:31:06;52.16;48.00
74420;DHT22;62855;50.718;-2.460;2023-04-03T14:34:06;52.52;48.00
74420;DHT22;62855;50.718;-2.460;2023-04-03T14:37:10;52.52;47.00
74420;DHT22;62855;50.718;-2.460;2023-04-03T14:40:11;52.70;48.00
74420;DHT22;62855;50.718;-2.460;2023-04-03T14:43:09;52.88;48.00
74420;DHT22;62855;50.718;-2.460;2023-04-03T14:46:12;53.06;47.00
74420;DHT22;62855;50.718;-2.460;2023-04-03T14:49:12;53.06;48.00
74420;DHT22;62855;50.718;-2.460;2023-04-03T14:52:09;53.06;47.00
74420;DHT22;62855;50.718;-2.460;2023-04-03T14:55:06;52.70;47.00
74420;DHT22;62855;50.718;-2.460;2023-04-03T14:58:07;52.52;47.00
74420;DHT22;62855;50.718;-2.460;2023-04-03T15:01:06;52.52;48.00
74420;DHT22;62855;50.718;-2.460;2023-04-03T15:04:10;52.88;49.00
74420;DHT22;62855;50.718;-2.460;2023-04-03T15:07:08;52.88;48.00
74420;DHT22;62855;50.718;-2.460;2023-04-03T15:10:16;53.06;49.00
74420;DHT22;62855;50.718;-2.460;2023-04-03T15:13:06;53.24;49.00
74420;DHT22;62855;50.718;-2.460;2023-04-03T15:16:14;53.42;45.00
74420;DHT22;62855;50.718;-2.460;2023-04-03T15:19:06;53.60;45.00
74420;DHT22;62855;50.718;-2.460;2023-04-03T15:22:06;53.60;45.00
74420;DHT22;62855;50.718;-2.460;2023-04-03T15:25:07;53.60;45.00
74420;DHT22;62855;50.718;-2.460;2023-04-03T15:28:08;53.60;45.00
74420;DHT22;62855;50.718;-2.460;2023-04-03T15:31:06;53.60;45.00
74420;DHT22;62855;50.718;-2.460;2023-04-03T15:34:06;53.60;45.00
74420;DHT22;62855;50.718;-2.460;2023-04-03T15:37:06;53.60;46.00
74420;DHT22;62855;50.718;-2.460;2023-04-03T15:40:07;53.78;46.00
74420;DHT22;62855;50.718;-2.460;2023-04-03T15:43:06;53.78;46.00
74420;DHT22;62855;50.718;-2.460;2023-04-03T15:46:06;53.78;46.00
74420;DHT22;62855;50.718;-2.460;2023-04-03T15:49:06;53.42;46.00
74420;DHT22;62855;50.718;-2.460;2023-04-03T15:52:06;53.60;46.00
74420;DHT22;62855;50.718;-2.460;2023-04-03T15:55:06;53.24;50.00
74420;DHT22;62855;50.718;-2.460;2023-04-03T15:58:05;53.24;51.00
74420;DHT22;62855;50.718;-2.460;2023-04-03T16:01:06;53.24;52.00
74420;DHT22;62855;50.718;-2.460;2023-04-03T16:04:07;53.24;54.00
74420;DHT22;62855;50.718;-2.460;2023-04-03T16:07:06;53.42;51.00
74420;DHT22;62855;50.718;-2.460;2023-04-03T16:10:07;53.42;51.00
74420;DHT22;62855;50.718;-2.460;2023-04-03T16:13:07;53.42;50.00
74420;DHT22;62855;50.718;-2.460;2023-04-03T16:16:06;53.24;53.00
74420;DHT22;62855;50.718;-2.460;2023-04-03T16:19:06;53.06;54.00
74420;DHT22;62855;50.718;-2.460;2023-04-03T16:22:06;53.06;54.00
74420;DHT22;62855;50.718;-2.460;2023-04-03T16:25:08;52.88;54.00
74420;DHT22;62855;50.718;-2.460;2023-04-03T16:28:06;52.70;54.00
74420;DHT22;62855;50.718;-2.460;2023-04-03T16:31:07;52.52;55.00
74420;DHT22;62855;50.718;-2.460;2023-04-03T16:34:06;52.52;55.00
74420;DHT22;62855;50.718;-2.460;2023-04-03T16:37:06;52.52;55.00
74420;DHT22;62855;50.718;-2.460;2023-04-03T16:40:07;52.34;55.00
74420;DHT22;62855;50.718;-2.460;2023-04-03T16:43:06;52.16;55.00
74420;DHT22;62855;50.718;-2.460;2023-04-03T16:46:05;51.80;55.00
74420;DHT22;62855;50.718;-2.460;2023-04-03T16:49:06;51.62;55.00
74420;DHT22;62855;50.718;-2.460;2023-04-03T16:52:06;51.44;56.00
74420;DHT22;62855;50.718;-2.460;2023-04-03T16:55:06;51.44;56.00
74420;DHT22;62855;50.718;-2.460;2023-04-03T16:58:06;51.08;56.00
74420;DHT22;62855;50.718;-2.460;2023-04-03T17:01:12;51.08;56.00
74420;DHT22;62855;50.718;-2.460;2023-04-03T17:04:06;51.08;56.00
74420;DHT22;62855;50.718;-2.460;2023-04-03T17:07:06;51.08;57.00
74420;DHT22;62855;50.718;-2.460;2023-04-03T17:10:08;50.90;57.00
74420;DHT22;62855;50.718;-2.460;2023-04-03T17:13:06;50.90;57.00
74420;DHT22;62855;50.718;-2.460;2023-04-03T17:16:09;50.72;57.00
74420;DHT22;62855;50.718;-2.460;2023-04-03T17:19:06;50.72;57.00
74420;DHT22;62855;50.718;-2.460;2023-04-03T17:22:06;50.72;57.00
74420;DHT22;62855;50.718;-2.460;2023-04-03T17:25:06;50.54;57.00
74420;DHT22;62855;50.718;-2.460;2023-04-03T17:29:06;50.36;57.00
74420;DHT22;62855;50.718;-2.460;2023-04-03T17:32:06;50.18;58.00
74420;DHT22;62855;50.718;-2.460;2023-04-03T17:35:07;50.18;58.00
74420;DHT22;62855;50.718;-2.460;2023-04-03T17:38:06;49.82;58.00
74420;DHT22;62855;50.718;-2.460;2023-04-03T17:41:07;49.64;58.00
74420;DHT22;62855;50.718;-2.460;2023-04-03T17:44:06;49.46;58.00
74420;DHT22;62855;50.718;-2.460;2023-04-03T17:47:06;49.46;58.00
74420;DHT22;62855;50.718;-2.460;2023-04-03T17:50:06;49.28;59.00
74420;DHT22;62855;50.718;-2.460;2023-04-03T17:53:05;49.28;59.00
74420;DHT22;62855;50.718;-2.460;2023-04-03T17:56:06;48.92;59.00
74420;DHT22;62855;50.718;-2.460;2023-04-03T17:59:06;48.92;59.00
74420;DHT22;62855;50.718;-2.460;2023-04-03T18:02:06;48.74;60.00
74420;DHT22;62855;50.718;-2.460;2023-04-03T18:05:06;48.56;60.00
74420;DHT22;62855;50.718;-2.460;2023-04-03T18:08:06;48.20;60.00
74420;DHT22;62855;50.718;-2.460;2023-04-03T18:11:06;48.20;60.00
74420;DHT22;62855;50.718;-2.460;2023-04-03T18:14:12;48.02;60.00
74420;DHT22;62855;50.718;-2.460;2023-04-03T18:17:06;47.84;60.00
74420;DHT22;62855;50.718;-2.460;2023-04-03T18:20:06;47.66;60.00
74420;DHT22;62855;50.718;-2.460;2023-04-03T18:23:06;47.66;60.00
74420;DHT22;62855;50.718;-2.460;2023-04-03T18:26:08;47.48;60.00
74420;DHT22;62855;50.718;-2.460;2023-04-03T18:29:08;47.30;60.00
74420;DHT22;62855;50.718;-2.460;2023-04-03T18:32:06;47.12;60.00
74420;DHT22;62855;50.718;-2.460;2023-04-03T18:35:08;46.94;60.00
74420;DHT22;62855;50.718;-2.460;2023-04-03T18:38:06;46.76;60.00
74420;DHT22;62855;50.718;-2.460;2023-04-03T18:41:07;46.58;60.00
74420;DHT22;62855;50.718;-2.460;2023-04-03T18:44:10;46.40;60.00
74420;DHT22;62855;50.718;-2.460;2023-04-03T18:47:07;46.22;60.00